sensor_id;sensor_type;location;lat;lon;timestamp;P1;durP1;ratioP1;P2;durP2;ratioP2
16979;SDS011;42288;52.182;21.156;2023-11-18T00:02:10;20.80;;;11.57;;
16979;SDS011;42288;52.182;21.156;2023-11-18T00:04:36;22.83;;;10.93;;
16979;SDS011;42288;52.182;21.156;2023-11-18T00:07:01;19.97;;;10.97;;
16979;SDS011;42288;52.182;21.156;2023-11-18T00:09:28;19.13;;;10.53;;
16979;SDS011;42288;52.182;21.156;2023-11-18T00:11:54;21.10;;;10.73;;
16979;SDS011;42288;52.182;21.156;2023-11-18T00:14:20;17.97;;;10.37;;
16979;SDS011;42288;52.182;21.156;2023-11-18T00:16:46;16.80;;;10.10;;
16979;SDS011;42288;52.182;21.156;2023-11-18T00:19:11;20.00;;;11.03;;
16979;SDS011;42288;52.182;21.156;2023-11-18T00:21:37;16.73;;;10.13;;
16979;SDS011;42288;52.182;21.156;2023-11-18T00:24:03;20.83;;;11.47;;
16979;SDS011;42288;52.182;21.156;2023-11-18T00:26:30;22.77;;;11.37;;
16979;SDS011;42288;52.182;21.156;2023-11-18T00:28:55;18.40;;;10.30;;
16979;SDS011;42288;52.182;21.156;2023-11-18T00:31:21;18.60;;;10.67;;
16979;SDS011;42288;52.182;21.156;2023-11-18T00:33:46;19.37;;;10.50;;
16979;SDS011;42288;52.182;21.156;2023-11-18T00:36:12;20.37;;;11.00;;
16979;SDS011;42288;52.182;21.156;2023-11-18T00:38:38;17.87;;;10.27;;
16979;SDS011;42288;52.182;21.156;2023-11-18T00:41:03;17.70;;;10.43;;
16979;SDS011;42288;52.182;21.156;2023-11-18T00:43:31;15.70;;;9.30;;
16979;SDS011;42288;52.182;21.156;2023-11-18T00:45:56;17.87;;;9.73;;
16979;SDS011;42288;52.182;21.156;2023-11-18T00:48:24;17.13;;;9.70;;
16979;SDS011;42288;52.182;21.156;2023-11-18T00:50:50;16.03;;;9.30;;
16979;SDS011;42288;52.182;21.156;2023-11-18T00:53:16;16.70;;;9.70;;
16979;SDS011;42288;52.182;21.156;2023-11-18T00:55:42;17.17;;;10.23;;
16979;SDS011;42288;52.182;21.156;2023-11-18T00:58:08;14.83;;;9.27;;
16979;SDS011;42288;52.182;21.156;2023-11-18T01:00:33;17.60;;;9.57;;
16979;SDS011;42288;52.182;21.156;2023-11-18T01:02:59;14.43;;;8.87;;
16979;SDS011;42288;52.182;21.156;2023-11-18T01:05:24;18.33;;;9.80;;
16979;SDS011;42288;52.182;21.156;2023-11-18T01:07:50;14.40;;;9.10;;
16979;SDS011;42288;52.182;21.156;2023-11-18T01:10:15;16.73;;;9.90;;
16979;SDS011;42288;52.182;21.156;2023-11-18T01:12:41;14.83;;;8.83;;
16979;SDS011;42288;52.182;21.156;2023-11-18T01:15:10;15.47;;;9.30;;
16979;SDS011;42288;52.182;21.156;2023-11-18T01:17:37;14.83;;;9.27;;
16979;SDS011;42288;52.182;21.156;2023-11-18T01:20:03;15.27;;;9.07;;
16979;SDS011;42288;52.182;21.156;2023-11-18T01:22:34;16.23;;;9.70;;
16979;SDS011;42288;52.182;21.156;2023-11-18T01:25:00;14.00;;;8.67;;
16979;SDS011;42288;52.182;21.156;2023-11-18T01:27:26;16.13;;;8.27;;
16979;SDS011;42288;52.182;21.156;2023-11-18T01:29:52;13.77;;;8.50;;
16979;SDS011;42288;52.182;21.156;2023-11-18T01:32:18;15.50;;;9.00;;
16979;SDS011;42288;52.182;21.156;2023-11-18T01:34:44;13.53;;;8.03;;
16979;SDS011;42288;52.182;21.156;2023-11-18T01:37:15;15.63;;;8.67;;
16979;SDS011;42288;52.182;21.156;2023-11-18T01:39:41;12.73;;;7.47;;
16979;SDS011;42288;52.182;21.156;2023-11-18T01:42:06;12.70;;;8.17;;
16979;SDS011;42288;52.182;21.156;2023-11-18T01:44:32;12.57;;;7.40;;
16979;SDS011;42288;52.182;21.156;2023-11-18T01:47:01;14.77;;;8.67;;
16979;SDS011;42288;52.182;21.156;2023-11-18T01:49:31;13.63;;;8.37;;
16979;SDS011;42288;52.182;21.156;2023-11-18T01:52:02;11.97;;;8.30;;
16979;SDS011;42288;52.182;21.156;2023-11-18T01:54:27;13.20;;;8.43;;
16979;SDS011;42288;52.182;21.156;2023-11-18T01:56:55;14.47;;;7.97;;
16979;SDS011;42288;52.182;21.156;2023-11-18T01:59:21;12.57;;;7.93;;
16979;SDS011;42288;52.182;21.156;2023-11-18T02:01:47;12.17;;;8.30;;
16979;SDS011;42288;52.182;21.156;2023-11-18T02:04:15;11.90;;;7.60;;
16979;SDS011;42288;52.182;21.156;2023-11-18T02:06:41;11.57;;;7.33;;
16979;SDS011;42288;52.182;21.156;2023-11-18T02:09:07;12.27;;;7.33;;
16979;SDS011;42288;52.182;21.156;2023-11-18T02:11:36;12.37;;;7.70;;
16979;SDS011;42288;52.182;21.156;2023-11-18T02:14:08;11.90;;;7.47;;
16979;SDS011;42288;52.182;21.156;2023-11-18T02:16:38;10.43;;;6.97;;
16979;SDS011;42288;52.182;21.156;2023-11-18T02:19:11;12.00;;;7.40;;
16979;SDS011;42288;52.182;21.156;2023-11-18T02:21:46;10.40;;;7.10;;
16979;SDS011;42288;52.182;21.156;2023-11-18T02:24:31;11.60;;;6.87;;
16979;SDS011;42288;52.182;21.156;2023-11-18T02:27:01;12.13;;;7.47;;
16979;SDS011;42288;52.182;21.156;2023-11-18T02:29:50;9.50;;;6.17;;
16979;SDS011;42288;52.182;21.156;2023-11-18T02:35:13;10.80;;;7.00;;
16979;SDS011;42288;52.182;21.156;2023-11-18T02:37:44;10.17;;;6.10;;
16979;SDS011;42288;52.182;21.156;2023-11-18T02:40:16;10.83;;;6.80;;
16979;SDS011;42288;52.182;21.156;2023-11-18T02:42:45;11.13;;;7.87;;
16979;SDS011;42288;52.182;21.156;2023-11-18T02:45:13;11.47;;;7.43;;
16979;SDS011;42288;52.182;21.156;2023-11-18T02:47:43;10.20;;;6.53;;
16979;SDS011;42288;52.182;21.156;2023-11-18T02:50:09;9.93;;;6.87;;
16979;SDS011;42288;52.182;21.156;2023-11-18T02:52:39;11.50;;;6.53;;
16979;SDS011;42288;52.182;21.156;2023-11-18T02:55:05;10.53;;;6.13;;
16979;SDS011;42288;52.182;21.156;2023-11-18T02:57:32;9.47;;;6.17;;
16979;SDS011;42288;52.182;21.156;2023-11-18T02:59:59;9.27;;;6.13;;
16979;SDS011;42288;52.182;21.156;2023-11-18T03:02:29;9.73;;;5.97;;
16979;SDS011;42288;52.182;21.156;2023-11-18T03:04:59;8.60;;;5.10;;
16979;SDS011;42288;52.182;21.156;2023-11-18T03:07:25;8.30;;;5.30;;
16979;SDS011;42288;52.182;21.156;2023-11-18T03:09:53;8.73;;;6.00;;
16979;SDS011;42288;52.182;21.156;2023-11-18T03:12:21;9.20;;;5.90;;
16979;SDS011;42288;52.182;21.156;2023-11-18T03:14:47;9.50;;;6.20;;
16979;SDS011;42288;52.182;21.156;2023-11-18T03:17:13;8.87;;;5.70;;
16979;SDS011;42288;52.182;21.156;2023-11-18T03:19:39;9.80;;;5.60;;
16979;SDS011;42288;52.182;21.156;2023-11-18T03:22:04;8.27;;;5.87;;
16979;SDS011;42288;52.182;21.156;2023-11-18T03:24:30;6.70;;;4.97;;
16979;SDS011;42288;52.182;21.156;2023-11-18T03:26:55;8.27;;;5.00;;
16979;SDS011;42288;52.182;21.156;2023-11-18T03:29:21;8.63;;;5.37;;
16979;SDS011;42288;52.182;21.156;2023-11-18T03:31:48;8.33;;;5.23;;
16979;SDS011;42288;52.182;21.156;2023-11-18T03:34:16;8.10;;;5.03;;
16979;SDS011;42288;52.182;21.156;2023-11-18T03:36:45;7.30;;;5.13;;
16979;SDS011;42288;52.182;21.156;2023-11-18T03:39:11;7.93;;;5.27;;
16979;SDS011;42288;52.182;21.156;2023-11-18T03:41:37;7.50;;;5.10;;
16979;SDS011;42288;52.182;21.156;2023-11-18T03:44:04;6.50;;;4.80;;
16979;SDS011;42288;52.182;21.156;2023-11-18T03:46:29;7.90;;;5.20;;
16979;SDS011;42288;52.182;21.156;2023-11-18T03:48:59;9.00;;;5.83;;
16979;SDS011;42288;52.182;21.156;2023-11-18T03:51:25;7.57;;;4.23;;
16979;SDS011;42288;52.182;21.156;2023-11-18T03:53:50;7.33;;;4.90;;
16979;SDS011;42288;52.182;21.156;2023-11-18T03:56:16;6.93;;;4.40;;
16979;SDS011;42288;52.182;21.156;2023-11-18T03:58:45;7.83;;;4.80;;
16979;SDS011;42288;52.182;21.156;2023-11-18T04:01:20;5.63;;;4.30;;
16979;SDS011;42288;52.182;21.156;2023-11-18T04:03:52;6.80;;;4.50;;
16979;SDS011;42288;52.182;21.156;2023-11-18T04:06:18;7.03;;;4.37;;
16979;SDS011;42288;52.182;21.156;2023-11-18T04:08:46;7.87;;;4.83;;
16979;SDS011;42288;52.182;21.156;2023-11-18T04:11:12;7.87;;;5.07;;
16979;SDS011;42288;52.182;21.156;2023-11-18T04:13:39;6.73;;;4.40;;
16979;SDS011;42288;52.182;21.156;2023-11-18T04:16:12;6.40;;;4.13;;
16979;SDS011;42288;52.182;21.156;2023-11-18T04:18:38;7.60;;;5.03;;
16979;SDS011;42288;52.182;21.156;2023-11-18T04:21:05;5.73;;;4.27;;
16979;SDS011;42288;52.182;21.156;2023-11-18T04:23:31;6.70;;;4.43;;
16979;SDS011;42288;52.182;21.156;2023-11-18T04:25:58;6.70;;;4.77;;
16979;SDS011;42288;52.182;21.156;2023-11-18T04:28:23;5.87;;;4.00;;
16979;SDS011;42288;52.182;21.156;2023-11-18T04:30:49;6.27;;;4.43;;
16979;SDS011;42288;52.182;21.156;2023-11-18T04:33:15;6.53;;;4.50;;
16979;SDS011;42288;52.182;21.156;2023-11-18T04:35:40;6.37;;;4.77;;
16979;SDS011;42288;52.182;21.156;2023-11-18T04:38:06;8.00;;;4.70;;
16979;SDS011;42288;52.182;21.156;2023-11-18T04:40:31;5.40;;;4.03;;
16979;SDS011;42288;52.182;21.156;2023-11-18T04:42:57;5.73;;;4.30;;
16979;SDS011;42288;52.182;21.156;2023-11-18T04:45:22;6.60;;;4.67;;
16979;SDS011;42288;52.182;21.156;2023-11-18T04:47:48;5.57;;;3.93;;
16979;SDS011;42288;52.182;21.156;2023-11-18T04:50:15;5.77;;;4.10;;
16979;SDS011;42288;52.182;21.156;2023-11-18T04:52:40;5.23;;;3.90;;
16979;SDS011;42288;52.182;21.156;2023-11-18T04:55:06;5.63;;;4.10;;
16979;SDS011;42288;52.182;21.156;2023-11-18T04:57:34;5.97;;;4.50;;
16979;SDS011;42288;52.182;21.156;2023-11-18T05:00:00;6.37;;;4.47;;
16979;SDS011;42288;52.182;21.156;2023-11-18T05:02:35;6.60;;;4.47;;
16979;SDS011;42288;52.182;21.156;2023-11-18T05:05:00;6.37;;;4.07;;
16979;SDS011;42288;52.182;21.156;2023-11-18T05:07:26;6.23;;;4.07;;
16979;SDS011;42288;52.182;21.156;2023-11-18T05:09:53;6.23;;;4.03;;
16979;SDS011;42288;52.182;21.156;2023-11-18T05:12:19;7.30;;;4.67;;
16979;SDS011;42288;52.182;21.156;2023-11-18T05:14:45;6.07;;;4.27;;
16979;SDS011;42288;52.182;21.156;2023-11-18T05:17:10;6.17;;;4.30;;
16979;SDS011;42288;52.182;21.156;2023-11-18T05:19:36;7.10;;;4.70;;
16979;SDS011;42288;52.182;21.156;2023-11-18T05:22:01;6.10;;;4.27;;
16979;SDS011;42288;52.182;21.156;2023-11-18T05:24:27;5.10;;;3.97;;
16979;SDS011;42288;52.182;21.156;2023-11-18T05:26:52;6.27;;;4.23;;
16979;SDS011;42288;52.182;21.156;2023-11-18T05:29:18;6.03;;;4.47;;
16979;SDS011;42288;52.182;21.156;2023-11-18T05:31:45;5.93;;;3.97;;
16979;SDS011;42288;52.182;21.156;2023-11-18T05:34:11;6.00;;;4.03;;
16979;SDS011;42288;52.182;21.156;2023-11-18T05:36:37;6.30;;;4.23;;
16979;SDS011;42288;52.182;21.156;2023-11-18T05:39:05;5.07;;;3.70;;
16979;SDS011;42288;52.182;21.156;2023-11-18T05:41:32;6.50;;;4.20;;
16979;SDS011;42288;52.182;21.156;2023-11-18T05:44:00;6.17;;;4.17;;
16979;SDS011;42288;52.182;21.156;2023-11-18T05:46:25;5.97;;;4.10;;
16979;SDS011;42288;52.182;21.156;2023-11-18T05:48:54;5.50;;;3.93;;
16979;SDS011;42288;52.182;21.156;2023-11-18T05:51:21;5.33;;;4.07;;
16979;SDS011;42288;52.182;21.156;2023-11-18T05:53:48;5.13;;;3.80;;
16979;SDS011;42288;52.182;21.156;2023-11-18T05:56:14;6.20;;;4.27;;
16979;SDS011;42288;52.182;21.156;2023-11-18T05:58:42;7.97;;;4.07;;
16979;SDS011;42288;52.182;21.156;2023-11-18T06:01:08;6.33;;;4.63;;
16979;SDS011;42288;52.182;21.156;2023-11-18T06:03:34;6.03;;;3.83;;
16979;SDS011;42288;52.182;21.156;2023-11-18T06:06:03;5.87;;;3.63;;
16979;SDS011;42288;52.182;21.156;2023-11-18T06:08:36;6.33;;;4.30;;
16979;SDS011;42288;52.182;21.156;2023-11-18T06:11:06;5.27;;;3.87;;
16979;SDS011;42288;52.182;21.156;2023-11-18T06:16:14;4.90;;;3.50;;
16979;SDS011;42288;52.182;21.156;2023-11-18T06:18:50;4.97;;;4.00;;
16979;SDS011;42288;52.182;21.156;2023-11-18T06:21:17;6.93;;;3.83;;
16979;SDS011;42288;52.182;21.156;2023-11-18T06:23:53;4.43;;;3.47;;
16979;SDS011;42288;52.182;21.156;2023-11-18T06:26:19;5.73;;;3.90;;
16979;SDS011;42288;52.182;21.156;2023-11-18T06:28:47;6.47;;;3.90;;
16979;SDS011;42288;52.182;21.156;2023-11-18T06:31:14;6.30;;;4.07;;
16979;SDS011;42288;52.182;21.156;2023-11-18T06:33:40;5.33;;;3.77;;
16979;SDS011;42288;52.182;21.156;2023-11-18T06:36:16;5.63;;;3.37;;
16979;SDS011;42288;52.182;21.156;2023-11-18T06:38:41;4.97;;;3.50;;
16979;SDS011;42288;52.182;21.156;2023-11-18T06:41:08;5.07;;;4.00;;
16979;SDS011;42288;52.182;21.156;2023-11-18T06:43:37;5.63;;;3.43;;
16979;SDS011;42288;52.182;21.156;2023-11-18T06:46:21;5.77;;;4.00;;
16979;SDS011;42288;52.182;21.156;2023-11-18T06:48:48;5.70;;;3.80;;
16979;SDS011;42288;52.182;21.156;2023-11-18T06:51:14;5.53;;;3.70;;
16979;SDS011;42288;52.182;21.156;2023-11-18T06:53:41;5.90;;;3.70;;
16979;SDS011;42288;52.182;21.156;2023-11-18T06:56:07;6.00;;;4.10;;
16979;SDS011;42288;52.182;21.156;2023-11-18T06:58:33;6.40;;;3.80;;
16979;SDS011;42288;52.182;21.156;2023-11-18T07:00:58;8.60;;;5.57;;
16979;SDS011;42288;52.182;21.156;2023-11-18T07:03:24;6.70;;;4.07;;
16979;SDS011;42288;52.182;21.156;2023-11-18T07:05:50;5.90;;;4.20;;
16979;SDS011;42288;52.182;21.156;2023-11-18T07:08:16;4.80;;;3.30;;
16979;SDS011;42288;52.182;21.156;2023-11-18T07:10:42;6.93;;;4.17;;
16979;SDS011;42288;52.182;21.156;2023-11-18T07:13:07;5.93;;;3.87;;
16979;SDS011;42288;52.182;21.156;2023-11-18T07:15:34;6.40;;;4.20;;
16979;SDS011;42288;52.182;21.156;2023-11-18T07:18:01;5.37;;;3.80;;
16979;SDS011;42288;52.182;21.156;2023-11-18T07:20:27;5.07;;;3.43;;
16979;SDS011;42288;52.182;21.156;2023-11-18T07:22:52;6.53;;;4.43;;
16979;SDS011;42288;52.182;21.156;2023-11-18T07:25:19;6.87;;;4.30;;
16979;SDS011;42288;52.182;21.156;2023-11-18T07:27:45;6.80;;;4.50;;
16979;SDS011;42288;52.182;21.156;2023-11-18T07:30:11;6.87;;;4.43;;
16979;SDS011;42288;52.182;21.156;2023-11-18T07:32:37;12.17;;;5.87;;
16979;SDS011;42288;52.182;21.156;2023-11-18T07:35:05;6.47;;;4.60;;
16979;SDS011;42288;52.182;21.156;2023-11-18T07:37:34;8.97;;;5.53;;
16979;SDS011;42288;52.182;21.156;2023-11-18T07:40:00;7.70;;;5.40;;
16979;SDS011;42288;52.182;21.156;2023-11-18T07:42:26;8.03;;;4.90;;
16979;SDS011;42288;52.182;21.156;2023-11-18T07:44:51;8.50;;;5.27;;
16979;SDS011;42288;52.182;21.156;2023-11-18T07:47:17;7.70;;;5.10;;
16979;SDS011;42288;52.182;21.156;2023-11-18T07:49:44;7.60;;;5.20;;
16979;SDS011;42288;52.182;21.156;2023-11-18T07:52:10;8.70;;;5.83;;
16979;SDS011;42288;52.182;21.156;2023-11-18T07:54:36;9.43;;;5.90;;
16979;SDS011;42288;52.182;21.156;2023-11-18T07:57:03;9.50;;;5.80;;
16979;SDS011;42288;52.182;21.156;2023-11-18T07:59:29;10.00;;;6.10;;
16979;SDS011;42288;52.182;21.156;2023-11-18T08:01:57;11.70;;;6.60;;
16979;SDS011;42288;52.182;21.156;2023-11-18T08:04:23;10.27;;;6.30;;
16979;SDS011;42288;52.182;21.156;2023-11-18T08:06:49;12.00;;;7.13;;
16979;SDS011;42288;52.182;21.156;2023-11-18T08:09:14;11.67;;;6.80;;
16979;SDS011;42288;52.182;21.156;2023-11-18T08:11:47;11.50;;;6.67;;
16979;SDS011;42288;52.182;21.156;2023-11-18T08:14:14;11.20;;;6.50;;
16979;SDS011;42288;52.182;21.156;2023-11-18T08:16:39;10.70;;;6.17;;
16979;SDS011;42288;52.182;21.156;2023-11-18T08:19:05;16.17;;;8.47;;
16979;SDS011;42288;52.182;21.156;2023-11-18T09:20:26;16.27;;;9.83;;
16979;SDS011;42288;52.182;21.156;2023-11-18T09:22:52;15.53;;;9.33;;
16979;SDS011;42288;52.182;21.156;2023-11-18T09:25:20;17.40;;;9.73;;
16979;SDS011;42288;52.182;21.156;2023-11-18T09:27:47;15.13;;;8.90;;
16979;SDS011;42288;52.182;21.156;2023-11-18T09:30:13;15.67;;;9.00;;
16979;SDS011;42288;52.182;21.156;2023-11-18T09:32:42;16.87;;;8.73;;
16979;SDS011;42288;52.182;21.156;2023-11-18T09:35:08;14.90;;;8.27;;
16979;SDS011;42288;52.182;21.156;2023-11-18T09:37:35;16.67;;;8.53;;
16979;SDS011;42288;52.182;21.156;2023-11-18T09:40:01;15.67;;;8.40;;
16979;SDS011;42288;52.182;21.156;2023-11-18T09:42:36;14.97;;;8.50;;
16979;SDS011;42288;52.182;21.156;2023-11-18T09:45:04;16.40;;;8.97;;
16979;SDS011;42288;52.182;21.156;2023-11-18T09:47:32;17.40;;;9.63;;
16979;SDS011;42288;52.182;21.156;2023-11-18T09:50:02;13.83;;;8.33;;
16979;SDS011;42288;52.182;21.156;2023-11-18T09:52:41;18.07;;;8.60;;
16979;SDS011;42288;52.182;21.156;2023-11-18T09:55:20;14.17;;;8.67;;
16979;SDS011;42288;52.182;21.156;2023-11-18T09:57:52;15.27;;;8.70;;
16979;SDS011;42288;52.182;21.156;2023-11-18T10:00:25;15.57;;;7.87;;
16979;SDS011;42288;52.182;21.156;2023-11-18T10:02:53;15.67;;;8.30;;
16979;SDS011;42288;52.182;21.156;2023-11-18T10:05:20;17.53;;;8.83;;
16979;SDS011;42288;52.182;21.156;2023-11-18T10:07:47;15.27;;;9.73;;
16979;SDS011;42288;52.182;21.156;2023-11-18T10:10:13;19.43;;;9.10;;
16979;SDS011;42288;52.182;21.156;2023-11-18T10:12:41;14.77;;;8.33;;
16979;SDS011;42288;52.182;21.156;2023-11-18T10:15:09;14.43;;;8.70;;
16979;SDS011;42288;52.182;21.156;2023-11-18T10:17:41;16.03;;;8.97;;
16979;SDS011;42288;52.182;21.156;2023-11-18T10:20:42;14.03;;;8.17;;
16979;SDS011;42288;52.182;21.156;2023-11-18T10:23:12;16.70;;;7.97;;
16979;SDS011;42288;52.182;21.156;2023-11-18T10:30:56;13.60;;;8.23;;
16979;SDS011;42288;52.182;21.156;2023-11-18T10:33:24;13.13;;;8.50;;
16979;SDS011;42288;52.182;21.156;2023-11-18T10:35:55;13.13;;;8.10;;
16979;SDS011;42288;52.182;21.156;2023-11-18T10:38:21;15.93;;;8.73;;
16979;SDS011;42288;52.182;21.156;2023-11-18T10:40:53;15.00;;;8.70;;
16979;SDS011;42288;52.182;21.156;2023-11-18T10:43:20;18.47;;;9.20;;
16979;SDS011;42288;52.182;21.156;2023-11-18T10:45:52;18.07;;;9.27;;
16979;SDS011;42288;52.182;21.156;2023-11-18T10:48:32;15.67;;;8.67;;
16979;SDS011;42288;52.182;21.156;2023-11-18T10:50:58;17.57;;;9.03;;
16979;SDS011;42288;52.182;21.156;2023-11-18T10:53:24;15.93;;;9.87;;
16979;SDS011;42288;52.182;21.156;2023-11-18T10:55:51;15.20;;;8.97;;
16979;SDS011;42288;52.182;21.156;2023-11-18T10:58:17;14.10;;;8.03;;
16979;SDS011;42288;52.182;21.156;2023-11-18T11:00:50;15.20;;;8.63;;
16979;SDS011;42288;52.182;21.156;2023-11-18T11:03:20;15.53;;;8.80;;
16979;SDS011;42288;52.182;21.156;2023-11-18T11:05:48;16.27;;;9.80;;
16979;SDS011;42288;52.182;21.156;2023-11-18T11:08:14;16.27;;;9.07;;
16979;SDS011;42288;52.182;21.156;2023-11-18T11:10:41;16.03;;;9.17;;
16979;SDS011;42288;52.182;21.156;2023-11-18T11:13:10;16.83;;;8.60;;
16979;SDS011;42288;52.182;21.156;2023-11-18T11:15:40;16.27;;;9.40;;
16979;SDS011;42288;52.182;21.156;2023-11-18T11:18:11;19.53;;;11.00;;
16979;SDS011;42288;52.182;21.156;2023-11-18T11:23:35;15.20;;;9.10;;
16979;SDS011;42288;52.182;21.156;2023-11-18T11:31:48;13.10;;;8.60;;
16979;SDS011;42288;52.182;21.156;2023-11-18T11:34:24;13.30;;;8.30;;
16979;SDS011;42288;52.182;21.156;2023-11-18T11:36:54;15.30;;;8.63;;
16979;SDS011;42288;52.182;21.156;2023-11-18T11:39:24;14.83;;;8.33;;
16979;SDS011;42288;52.182;21.156;2023-11-18T11:41:56;16.20;;;9.60;;
16979;SDS011;42288;52.182;21.156;2023-11-18T11:44:24;14.33;;;9.33;;
16979;SDS011;42288;52.182;21.156;2023-11-18T11:46:55;15.37;;;9.43;;
16979;SDS011;42288;52.182;21.156;2023-11-18T11:49:24;16.70;;;9.33;;
16979;SDS011;42288;52.182;21.156;2023-11-18T11:54:29;15.63;;;9.47;;
16979;SDS011;42288;52.182;21.156;2023-11-18T11:57:01;13.87;;;9.20;;
16979;SDS011;42288;52.182;21.156;2023-11-18T12:02:26;16.37;;;9.63;;
16979;SDS011;42288;52.182;21.156;2023-11-18T12:04:57;18.13;;;9.23;;
16979;SDS011;42288;52.182;21.156;2023-11-18T12:07:27;17.40;;;8.77;;
16979;SDS011;42288;52.182;21.156;2023-11-18T12:10:00;15.47;;;9.07;;
16979;SDS011;42288;52.182;21.156;2023-11-18T12:12:31;17.37;;;9.70;;
16979;SDS011;42288;52.182;21.156;2023-11-18T12:14:59;17.70;;;9.40;;
16979;SDS011;42288;52.182;21.156;2023-11-18T12:23:07;18.53;;;10.63;;
16979;SDS011;42288;52.182;21.156;2023-11-18T12:25:39;19.30;;;10.57;;
16979;SDS011;42288;52.182;21.156;2023-11-18T12:28:10;18.33;;;10.23;;
16979;SDS011;42288;52.182;21.156;2023-11-18T12:30:39;16.00;;;9.60;;
16979;SDS011;42288;52.182;21.156;2023-11-18T12:33:16;18.43;;;10.63;;
16979;SDS011;42288;52.182;21.156;2023-11-18T12:35:55;20.23;;;10.87;;
16979;SDS011;42288;52.182;21.156;2023-11-18T12:41:42;15.37;;;10.13;;
16979;SDS011;42288;52.182;21.156;2023-11-18T12:49:43;23.10;;;12.90;;
16979;SDS011;42288;52.182;21.156;2023-11-18T12:52:10;23.83;;;11.83;;
16979;SDS011;42288;52.182;21.156;2023-11-18T12:54:40;23.40;;;13.43;;
16979;SDS011;42288;52.182;21.156;2023-11-18T12:57:08;27.30;;;14.93;;
16979;SDS011;42288;52.182;21.156;2023-11-18T12:59:40;23.00;;;12.30;;
16979;SDS011;42288;52.182;21.156;2023-11-18T13:02:09;35.63;;;18.97;;
16979;SDS011;42288;52.182;21.156;2023-11-18T13:04:44;24.20;;;13.47;;
16979;SDS011;42288;52.182;21.156;2023-11-18T13:07:12;22.30;;;12.83;;
16979;SDS011;42288;52.182;21.156;2023-11-18T13:09:39;26.53;;;14.40;;
16979;SDS011;42288;52.182;21.156;2023-11-18T13:12:07;23.50;;;13.47;;
16979;SDS011;42288;52.182;21.156;2023-11-18T13:14:34;30.80;;;17.37;;
16979;SDS011;42288;52.182;21.156;2023-11-18T13:17:04;36.23;;;19.17;;
16979;SDS011;42288;52.182;21.156;2023-11-18T13:19:33;34.00;;;19.00;;
16979;SDS011;42288;52.182;21.156;2023-11-18T13:22:00;30.40;;;16.27;;
16979;SDS011;42288;52.182;21.156;2023-11-18T13:24:29;25.90;;;14.60;;
16979;SDS011;42288;52.182;21.156;2023-11-18T13:26:57;31.87;;;17.10;;
16979;SDS011;42288;52.182;21.156;2023-11-18T13:29:28;25.17;;;14.77;;
16979;SDS011;42288;52.182;21.156;2023-11-18T13:31:54;26.50;;;15.07;;
16979;SDS011;42288;52.182;21.156;2023-11-18T13:34:22;27.40;;;15.20;;
16979;SDS011;42288;52.182;21.156;2023-11-18T13:36:49;33.57;;;17.33;;
16979;SDS011;42288;52.182;21.156;2023-11-18T13:39:17;25.27;;;14.60;;
16979;SDS011;42288;52.182;21.156;2023-11-18T13:41:44;30.03;;;15.00;;
16979;SDS011;42288;52.182;21.156;2023-11-18T13:44:13;30.57;;;16.33;;
16979;SDS011;42288;52.182;21.156;2023-11-18T13:47:00;32.67;;;17.20;;
16979;SDS011;42288;52.182;21.156;2023-11-18T13:49:27;29.10;;;15.77;;
16979;SDS011;42288;52.182;21.156;2023-11-18T13:51:54;30.67;;;16.57;;
16979;SDS011;42288;52.182;21.156;2023-11-18T13:54:20;31.23;;;15.47;;
16979;SDS011;42288;52.182;21.156;2023-11-18T13:56:47;34.37;;;16.80;;
16979;SDS011;42288;52.182;21.156;2023-11-18T13:59:14;26.60;;;14.23;;
16979;SDS011;42288;52.182;21.156;2023-11-18T14:01:40;29.83;;;15.10;;
16979;SDS011;42288;52.182;21.156;2023-11-18T14:04:06;31.63;;;16.63;;
16979;SDS011;42288;52.182;21.156;2023-11-18T14:06:35;28.50;;;15.57;;
16979;SDS011;42288;52.182;21.156;2023-11-18T14:09:00;28.73;;;15.73;;
16979;SDS011;42288;52.182;21.156;2023-11-18T14:11:26;27.83;;;14.67;;
16979;SDS011;42288;52.182;21.156;2023-11-18T14:13:51;29.40;;;15.90;;
16979;SDS011;42288;52.182;21.156;2023-11-18T14:16:18;24.87;;;13.77;;
16979;SDS011;42288;52.182;21.156;2023-11-18T14:18:46;28.27;;;14.60;;
16979;SDS011;42288;52.182;21.156;2023-11-18T14:21:12;34.83;;;17.87;;
16979;SDS011;42288;52.182;21.156;2023-11-18T14:23:39;29.97;;;16.20;;
16979;SDS011;42288;52.182;21.156;2023-11-18T14:26:05;27.23;;;13.93;;
16979;SDS011;42288;52.182;21.156;2023-11-18T14:28:32;32.03;;;15.67;;
16979;SDS011;42288;52.182;21.156;2023-11-18T14:31:00;32.73;;;16.20;;
16979;SDS011;42288;52.182;21.156;2023-11-18T14:33:26;29.70;;;16.77;;
16979;SDS011;42288;52.182;21.156;2023-11-18T14:35:53;36.80;;;17.13;;
16979;SDS011;42288;52.182;21.156;2023-11-18T14:38:21;28.90;;;16.27;;
16979;SDS011;42288;52.182;21.156;2023-11-18T14:40:46;36.63;;;18.70;;
16979;SDS011;42288;52.182;21.156;2023-11-18T14:43:13;37.27;;;18.63;;
16979;SDS011;42288;52.182;21.156;2023-11-18T14:45:39;33.50;;;16.93;;
16979;SDS011;42288;52.182;21.156;2023-11-18T14:48:05;34.60;;;18.17;;
16979;SDS011;42288;52.182;21.156;2023-11-18T14:50:31;35.50;;;17.57;;
16979;SDS011;42288;52.182;21.156;2023-11-18T14:52:56;32.23;;;16.53;;
16979;SDS011;42288;52.182;21.156;2023-11-18T14:55:26;30.27;;;15.20;;
16979;SDS011;42288;52.182;21.156;2023-11-18T14:57:52;29.13;;;15.20;;
16979;SDS011;42288;52.182;21.156;2023-11-18T15:00:18;34.90;;;17.67;;
16979;SDS011;42288;52.182;21.156;2023-11-18T15:02:47;32.87;;;16.80;;
16979;SDS011;42288;52.182;21.156;2023-11-18T15:05:16;39.07;;;19.70;;
16979;SDS011;42288;52.182;21.156;2023-11-18T15:07:47;30.77;;;17.10;;
16979;SDS011;42288;52.182;21.156;2023-11-18T15:10:14;35.13;;;18.23;;
16979;SDS011;42288;52.182;21.156;2023-11-18T15:12:44;32.80;;;17.10;;
16979;SDS011;42288;52.182;21.156;2023-11-18T15:15:13;32.10;;;17.00;;
16979;SDS011;42288;52.182;21.156;2023-11-18T15:17:43;32.40;;;17.37;;
16979;SDS011;42288;52.182;21.156;2023-11-18T15:20:11;31.50;;;17.73;;
16979;SDS011;42288;52.182;21.156;2023-11-18T15:22:37;40.07;;;21.50;;
16979;SDS011;42288;52.182;21.156;2023-11-18T15:25:03;33.43;;;17.20;;
16979;SDS011;42288;52.182;21.156;2023-11-18T15:27:34;26.83;;;14.83;;
16979;SDS011;42288;52.182;21.156;2023-11-18T15:30:00;28.83;;;15.50;;
16979;SDS011;42288;52.182;21.156;2023-11-18T15:32:27;63.33;;;33.20;;
16979;SDS011;42288;52.182;21.156;2023-11-18T15:34:53;37.77;;;19.63;;
16979;SDS011;42288;52.182;21.156;2023-11-18T15:37:18;35.77;;;18.33;;
16979;SDS011;42288;52.182;21.156;2023-11-18T15:39:44;39.10;;;20.10;;
16979;SDS011;42288;52.182;21.156;2023-11-18T15:42:09;94.17;;;45.40;;
16979;SDS011;42288;52.182;21.156;2023-11-18T15:44:36;44.53;;;23.00;;
16979;SDS011;42288;52.182;21.156;2023-11-18T15:47:04;43.30;;;22.00;;
16979;SDS011;42288;52.182;21.156;2023-11-18T15:49:30;41.97;;;21.63;;
16979;SDS011;42288;52.182;21.156;2023-11-18T15:51:55;52.43;;;27.50;;
16979;SDS011;42288;52.182;21.156;2023-11-18T15:54:21;45.60;;;24.17;;
16979;SDS011;42288;52.182;21.156;2023-11-18T15:56:46;41.87;;;22.37;;
16979;SDS011;42288;52.182;21.156;2023-11-18T15:59:12;42.40;;;21.27;;
16979;SDS011;42288;52.182;21.156;2023-11-18T16:01:38;37.33;;;18.77;;
16979;SDS011;42288;52.182;21.156;2023-11-18T16:04:03;54.23;;;25.33;;